sensor_id;sensor_type;location;lat;lon;timestamp;P1;durP1;ratioP1;P2;durP2;ratioP2
68792;SDS011;55778;54.346;10.210;2023-03-24T00:00:06;13.93;;;5.88;;
68792;SDS011;55778;54.346;10.210;2023-03-24T00:02:37;10.75;;;5.32;;
68792;SDS011;55778;54.346;10.210;2023-03-24T00:05:06;13.25;;;5.95;;
68792;SDS011;55778;54.346;10.210;2023-03-24T00:07:34;13.20;;;6.60;;
68792;SDS011;55778;54.346;10.210;2023-03-24T00:10:02;14.50;;;7.07;;
68792;SDS011;55778;54.346;10.210;2023-03-24T00:12:33;12.70;;;6.78;;
68792;SDS011;55778;54.346;10.210;2023-03-24T00:15:03;14.85;;;6.30;;
68792;SDS011;55778;54.346;10.210;2023-03-24T00:17:30;16.23;;;6.05;;
68792;SDS011;55778;54.346;10.210;2023-03-24T00:19:59;16.30;;;7.10;;
68792;SDS011;55778;54.346;10.210;2023-03-24T00:22:25;14.75;;;7.03;;
68792;SDS011;55778;54.346;10.210;2023-03-24T00:24:52;16.73;;;6.78;;
68792;SDS011;55778;54.346;10.210;2023-03-24T00:27:18;16.33;;;7.45;;
68792;SDS011;55778;54.346;10.210;2023-03-24T00:29:45;19.33;;;8.43;;
68792;SDS011;55778;54.346;10.210;2023-03-24T00:32:10;18.17;;;7.65;;
68792;SDS011;55778;54.346;10.210;2023-03-24T00:34:36;17.85;;;8.57;;
68792;SDS011;55778;54.346;10.210;2023-03-24T00:37:02;18.08;;;8.05;;
68792;SDS011;55778;54.346;10.210;2023-03-24T00:39:31;16.70;;;7.95;;
68792;SDS011;55778;54.346;10.210;2023-03-24T00:41:57;19.20;;;8.38;;
68792;SDS011;55778;54.346;10.210;2023-03-24T00:44:22;17.38;;;8.00;;
68792;SDS011;55778;54.346;10.210;2023-03-24T00:46:50;20.50;;;9.38;;
68792;SDS011;55778;54.346;10.210;2023-03-24T00:49:22;17.85;;;7.25;;
68792;SDS011;55778;54.346;10.210;2023-03-24T00:52:21;19.00;;;7.65;;
68792;SDS011;55778;54.346;10.210;2023-03-24T00:54:50;19.30;;;7.95;;
68792;SDS011;55778;54.346;10.210;2023-03-24T00:57:22;17.08;;;8.02;;
68792;SDS011;55778;54.346;10.210;2023-03-24T00:59:50;16.08;;;7.53;;
68792;SDS011;55778;54.346;10.210;2023-03-24T01:02:17;16.95;;;7.72;;
68792;SDS011;55778;54.346;10.210;2023-03-24T01:04:50;16.20;;;6.45;;
68792;SDS011;55778;54.346;10.210;2023-03-24T01:07:18;15.30;;;7.18;;
68792;SDS011;55778;54.346;10.210;2023-03-24T01:09:45;14.63;;;6.43;;
68792;SDS011;55778;54.346;10.210;2023-03-24T01:12:24;15.53;;;7.27;;
68792;SDS011;55778;54.346;10.210;2023-03-24T01:14:55;14.13;;;7.00;;
68792;SDS011;55778;54.346;10.210;2023-03-24T01:17:22;14.93;;;7.20;;
68792;SDS011;55778;54.346;10.210;2023-03-24T01:19:50;14.15;;;6.22;;
68792;SDS011;55778;54.346;10.210;2023-03-24T01:22:16;14.57;;;6.28;;
68792;SDS011;55778;54.346;10.210;2023-03-24T01:24:44;13.20;;;6.63;;
68792;SDS011;55778;54.346;10.210;2023-03-24T01:27:10;13.90;;;6.00;;
68792;SDS011;55778;54.346;10.210;2023-03-24T01:29:36;13.05;;;5.10;;
68792;SDS011;55778;54.346;10.210;2023-03-24T01:32:02;12.93;;;5.28;;
68792;SDS011;55778;54.346;10.210;2023-03-24T01:34:27;13.43;;;6.45;;
68792;SDS011;55778;54.346;10.210;2023-03-24T01:36:54;14.32;;;5.35;;
68792;SDS011;55778;54.346;10.210;2023-03-24T01:39:19;13.38;;;5.63;;
68792;SDS011;55778;54.346;10.210;2023-03-24T01:41:45;12.65;;;5.93;;
68792;SDS011;55778;54.346;10.210;2023-03-24T01:44:27;11.93;;;5.32;;
68792;SDS011;55778;54.346;10.210;2023-03-24T01:46:56;12.40;;;5.75;;
68792;SDS011;55778;54.346;10.210;2023-03-24T01:49:22;13.57;;;5.85;;
68792;SDS011;55778;54.346;10.210;2023-03-24T01:51:56;13.60;;;5.50;;
68792;SDS011;55778;54.346;10.210;2023-03-24T01:54:35;12.60;;;5.75;;
68792;SDS011;55778;54.346;10.210;2023-03-24T01:57:07;12.15;;;5.13;;
68792;SDS011;55778;54.346;10.210;2023-03-24T01:59:50;16.30;;;6.28;;
68792;SDS011;55778;54.346;10.210;2023-03-24T02:02:19;11.93;;;6.00;;
68792;SDS011;55778;54.346;10.210;2023-03-24T02:04:48;11.68;;;5.65;;
68792;SDS011;55778;54.346;10.210;2023-03-24T02:07:36;11.98;;;5.13;;
68792;SDS011;55778;54.346;10.210;2023-03-24T02:10:25;11.35;;;5.72;;
68792;SDS011;55778;54.346;10.210;2023-03-24T02:12:50;12.07;;;5.77;;
68792;SDS011;55778;54.346;10.210;2023-03-24T02:15:18;12.73;;;6.45;;
68792;SDS011;55778;54.346;10.210;2023-03-24T02:40:11;13.75;;;6.18;;
68792;SDS011;55778;54.346;10.210;2023-03-24T02:43:13;14.95;;;6.03;;
68792;SDS011;55778;54.346;10.210;2023-03-24T02:48:20;13.77;;;6.15;;
68792;SDS011;55778;54.346;10.210;2023-03-24T02:53:36;17.55;;;7.65;;
68792;SDS011;55778;54.346;10.210;2023-03-24T02:59:01;15.73;;;6.90;;
68792;SDS011;55778;54.346;10.210;2023-03-24T03:01:40;15.02;;;6.57;;
68792;SDS011;55778;54.346;10.210;2023-03-24T03:04:21;13.15;;;6.20;;
68792;SDS011;55778;54.346;10.210;2023-03-24T03:06:54;11.55;;;6.00;;
68792;SDS011;55778;54.346;10.210;2023-03-24T03:11:50;12.95;;;5.80;;
68792;SDS011;55778;54.346;10.210;2023-03-24T03:14:25;15.38;;;7.25;;
68792;SDS011;55778;54.346;10.210;2023-03-24T03:17:02;12.82;;;6.93;;
68792;SDS011;55778;54.346;10.210;2023-03-24T03:19:37;15.40;;;7.05;;
68792;SDS011;55778;54.346;10.210;2023-03-24T03:22:14;13.35;;;6.55;;
68792;SDS011;55778;54.346;10.210;2023-03-24T03:24:43;15.18;;;6.70;;
68792;SDS011;55778;54.346;10.210;2023-03-24T03:27:24;12.85;;;6.95;;
68792;SDS011;55778;54.346;10.210;2023-03-24T03:29:57;11.25;;;5.90;;
68792;SDS011;55778;54.346;10.210;2023-03-24T03:32:28;14.88;;;7.43;;
68792;SDS011;55778;54.346;10.210;2023-03-24T03:43:20;13.45;;;6.47;;
68792;SDS011;55778;54.346;10.210;2023-03-24T03:45:46;15.35;;;8.07;;
68792;SDS011;55778;54.346;10.210;2023-03-24T03:48:12;13.88;;;7.80;;
68792;SDS011;55778;54.346;10.210;2023-03-24T03:50:40;15.02;;;7.30;;
68792;SDS011;55778;54.346;10.210;2023-03-24T03:53:06;16.23;;;8.95;;
68792;SDS011;55778;54.346;10.210;2023-03-24T03:55:32;13.40;;;7.95;;
68792;SDS011;55778;54.346;10.210;2023-03-24T03:57:59;17.60;;;8.57;;
68792;SDS011;55778;54.346;10.210;2023-03-24T04:00:25;15.68;;;7.82;;
68792;SDS011;55778;54.346;10.210;2023-03-24T04:05:35;14.05;;;7.60;;
68792;SDS011;55778;54.346;10.210;2023-03-24T04:08:17;15.57;;;7.30;;
68792;SDS011;55778;54.346;10.210;2023-03-24T04:13:50;14.00;;;7.05;;
68792;SDS011;55778;54.346;10.210;2023-03-24T04:35:42;15.85;;;7.55;;
68792;SDS011;55778;54.346;10.210;2023-03-24T04:38:13;10.68;;;6.50;;
68792;SDS011;55778;54.346;10.210;2023-03-24T04:40:47;14.50;;;7.65;;
68792;SDS011;55778;54.346;10.210;2023-03-24T04:43:16;14.98;;;7.55;;
68792;SDS011;55778;54.346;10.210;2023-03-24T04:45:44;14.00;;;7.87;;
68792;SDS011;55778;54.346;10.210;2023-03-24T04:48:13;13.15;;;6.85;;
68792;SDS011;55778;54.346;10.210;2023-03-24T04:50:52;15.90;;;7.50;;
68792;SDS011;55778;54.346;10.210;2023-03-24T04:53:20;11.23;;;5.95;;
68792;SDS011;55778;54.346;10.210;2023-03-24T04:58:16;10.70;;;6.30;;
68792;SDS011;55778;54.346;10.210;2023-03-24T05:00:42;9.80;;;6.03;;
68792;SDS011;55778;54.346;10.210;2023-03-24T05:03:12;12.05;;;6.25;;
68792;SDS011;55778;54.346;10.210;2023-03-24T05:05:40;11.75;;;6.55;;
68792;SDS011;55778;54.346;10.210;2023-03-24T05:08:09;11.88;;;6.70;;
68792;SDS011;55778;54.346;10.210;2023-03-24T05:10:35;12.80;;;7.63;;
68792;SDS011;55778;54.346;10.210;2023-03-24T05:13:02;12.88;;;6.85;;
68792;SDS011;55778;54.346;10.210;2023-03-24T05:15:28;11.80;;;6.88;;
68792;SDS011;55778;54.346;10.210;2023-03-24T05:17:54;11.90;;;7.43;;
68792;SDS011;55778;54.346;10.210;2023-03-24T05:20:20;13.43;;;7.28;;
68792;SDS011;55778;54.346;10.210;2023-03-24T05:22:46;13.80;;;7.30;;
68792;SDS011;55778;54.346;10.210;2023-03-24T05:25:13;11.07;;;6.63;;
68792;SDS011;55778;54.346;10.210;2023-03-24T05:27:40;12.00;;;7.55;;
68792;SDS011;55778;54.346;10.210;2023-03-24T05:30:06;10.75;;;6.57;;
68792;SDS011;55778;54.346;10.210;2023-03-24T05:32:32;14.40;;;6.60;;
68792;SDS011;55778;54.346;10.210;2023-03-24T05:34:58;11.95;;;6.18;;
68792;SDS011;55778;54.346;10.210;2023-03-24T05:37:23;10.85;;;6.15;;
68792;SDS011;55778;54.346;10.210;2023-03-24T05:39:49;10.13;;;5.70;;
68792;SDS011;55778;54.346;10.210;2023-03-24T05:42:15;11.02;;;6.07;;
68792;SDS011;55778;54.346;10.210;2023-03-24T05:44:41;8.38;;;4.57;;
68792;SDS011;55778;54.346;10.210;2023-03-24T05:47:09;11.07;;;5.97;;
68792;SDS011;55778;54.346;10.210;2023-03-24T05:49:36;9.95;;;5.32;;
68792;SDS011;55778;54.346;10.210;2023-03-24T05:52:02;9.18;;;5.22;;
68792;SDS011;55778;54.346;10.210;2023-03-24T05:54:27;9.88;;;5.78;;
68792;SDS011;55778;54.346;10.210;2023-03-24T05:56:53;10.13;;;5.70;;
68792;SDS011;55778;54.346;10.210;2023-03-24T05:59:18;9.20;;;5.35;;
68792;SDS011;55778;54.346;10.210;2023-03-24T06:01:44;12.38;;;4.72;;
68792;SDS011;55778;54.346;10.210;2023-03-24T06:04:09;9.07;;;5.05;;
68792;SDS011;55778;54.346;10.210;2023-03-24T06:06:35;12.73;;;5.40;;
68792;SDS011;55778;54.346;10.210;2023-03-24T06:09:02;8.38;;;4.53;;
68792;SDS011;55778;54.346;10.210;2023-03-24T06:11:29;9.52;;;5.38;;
68792;SDS011;55778;54.346;10.210;2023-03-24T06:13:55;8.95;;;4.70;;
68792;SDS011;55778;54.346;10.210;2023-03-24T06:16:25;9.93;;;4.80;;
68792;SDS011;55778;54.346;10.210;2023-03-24T06:18:51;8.13;;;4.68;;
68792;SDS011;55778;54.346;10.210;2023-03-24T06:21:17;8.13;;;4.53;;
68792;SDS011;55778;54.346;10.210;2023-03-24T06:23:43;8.90;;;5.07;;
68792;SDS011;55778;54.346;10.210;2023-03-24T06:26:09;6.82;;;4.65;;
68792;SDS011;55778;54.346;10.210;2023-03-24T06:28:36;8.13;;;5.13;;
68792;SDS011;55778;54.346;10.210;2023-03-24T06:31:04;8.57;;;5.20;;
68792;SDS011;55778;54.346;10.210;2023-03-24T06:33:30;8.90;;;4.95;;
68792;SDS011;55778;54.346;10.210;2023-03-24T06:35:56;8.13;;;4.75;;
68792;SDS011;55778;54.346;10.210;2023-03-24T06:38:25;8.55;;;5.63;;
68792;SDS011;55778;54.346;10.210;2023-03-24T06:40:51;7.85;;;5.47;;
68792;SDS011;55778;54.346;10.210;2023-03-24T06:43:16;8.38;;;5.13;;
68792;SDS011;55778;54.346;10.210;2023-03-24T06:45:43;8.20;;;5.05;;
68792;SDS011;55778;54.346;10.210;2023-03-24T06:48:09;8.05;;;4.65;;
68792;SDS011;55778;54.346;10.210;2023-03-24T06:50:34;6.22;;;4.20;;
68792;SDS011;55778;54.346;10.210;2023-03-24T06:53:00;8.25;;;4.43;;
68792;SDS011;55778;54.346;10.210;2023-03-24T06:55:26;9.30;;;4.85;;
68792;SDS011;55778;54.346;10.210;2023-03-24T06:57:52;6.43;;;4.43;;
68792;SDS011;55778;54.346;10.210;2023-03-24T07:00:18;5.38;;;3.78;;
68792;SDS011;55778;54.346;10.210;2023-03-24T07:02:44;5.40;;;3.35;;
68792;SDS011;55778;54.346;10.210;2023-03-24T07:05:09;7.25;;;4.28;;
68792;SDS011;55778;54.346;10.210;2023-03-24T07:07:36;10.05;;;5.30;;
68792;SDS011;55778;54.346;10.210;2023-03-24T07:10:02;8.80;;;5.85;;
68792;SDS011;55778;54.346;10.210;2023-03-24T07:12:29;8.48;;;4.93;;
68792;SDS011;55778;54.346;10.210;2023-03-24T07:14:55;6.70;;;4.07;;
68792;SDS011;55778;54.346;10.210;2023-03-24T07:17:21;7.22;;;4.60;;
68792;SDS011;55778;54.346;10.210;2023-03-24T07:19:47;3.65;;;1.70;;
68792;SDS011;55778;54.346;10.210;2023-03-24T07:22:12;4.72;;;1.60;;
68792;SDS011;55778;54.346;10.210;2023-03-24T07:24:38;3.15;;;1.40;;
68792;SDS011;55778;54.346;10.210;2023-03-24T07:27:04;3.20;;;1.80;;
68792;SDS011;55778;54.346;10.210;2023-03-24T07:29:29;3.65;;;1.10;;
68792;SDS011;55778;54.346;10.210;2023-03-24T07:31:55;4.95;;;1.55;;
68792;SDS011;55778;54.346;10.210;2023-03-24T07:34:25;4.50;;;1.10;;
68792;SDS011;55778;54.346;10.210;2023-03-24T07:36:51;4.85;;;1.65;;
68792;SDS011;55778;54.346;10.210;2023-03-24T07:39:16;6.57;;;1.38;;
68792;SDS011;55778;54.346;10.210;2023-03-24T07:41:42;4.45;;;1.30;;
68792;SDS011;55778;54.346;10.210;2023-03-24T07:44:07;5.82;;;1.20;;
68792;SDS011;55778;54.346;10.210;2023-03-24T07:46:33;8.52;;;1.73;;
68792;SDS011;55778;54.346;10.210;2023-03-24T07:48:59;6.28;;;1.40;;
68792;SDS011;55778;54.346;10.210;2023-03-24T07:51:26;6.00;;;1.35;;
68792;SDS011;55778;54.346;10.210;2023-03-24T07:53:51;5.82;;;1.50;;
68792;SDS011;55778;54.346;10.210;2023-03-24T07:56:16;8.30;;;1.63;;
68792;SDS011;55778;54.346;10.210;2023-03-24T07:58:42;11.88;;;1.65;;
68792;SDS011;55778;54.346;10.210;2023-03-24T08:01:08;6.20;;;1.48;;
68792;SDS011;55778;54.346;10.210;2023-03-24T08:03:36;6.43;;;1.63;;
68792;SDS011;55778;54.346;10.210;2023-03-24T08:06:03;7.05;;;1.70;;
68792;SDS011;55778;54.346;10.210;2023-03-24T08:08:29;6.65;;;1.67;;
68792;SDS011;55778;54.346;10.210;2023-03-24T08:10:55;6.85;;;1.48;;
68792;SDS011;55778;54.346;10.210;2023-03-24T08:13:24;11.90;;;2.30;;
68792;SDS011;55778;54.346;10.210;2023-03-24T08:15:50;8.88;;;1.50;;
68792;SDS011;55778;54.346;10.210;2023-03-24T08:18:17;6.38;;;1.88;;
68792;SDS011;55778;54.346;10.210;2023-03-24T08:20:47;8.65;;;1.58;;
68792;SDS011;55778;54.346;10.210;2023-03-24T08:23:13;12.00;;;2.25;;
68792;SDS011;55778;54.346;10.210;2023-03-24T08:25:39;9.10;;;2.45;;
68792;SDS011;55778;54.346;10.210;2023-03-24T08:28:05;7.40;;;2.10;;
68792;SDS011;55778;54.346;10.210;2023-03-24T08:30:31;10.60;;;2.17;;
68792;SDS011;55778;54.346;10.210;2023-03-24T08:32:58;10.23;;;1.65;;
68792;SDS011;55778;54.346;10.210;2023-03-24T08:35:26;9.05;;;2.05;;
68792;SDS011;55778;54.346;10.210;2023-03-24T08:37:53;12.30;;;2.50;;
68792;SDS011;55778;54.346;10.210;2023-03-24T08:40:20;9.68;;;1.92;;
68792;SDS011;55778;54.346;10.210;2023-03-24T08:42:58;6.13;;;1.45;;
68792;SDS011;55778;54.346;10.210;2023-03-24T08:45:26;9.32;;;2.05;;
68792;SDS011;55778;54.346;10.210;2023-03-24T08:47:54;10.02;;;2.10;;
68792;SDS011;55778;54.346;10.210;2023-03-24T08:50:21;9.57;;;1.90;;
68792;SDS011;55778;54.346;10.210;2023-03-24T08:52:49;9.38;;;2.00;;
68792;SDS011;55778;54.346;10.210;2023-03-24T08:55:15;10.82;;;2.10;;
68792;SDS011;55778;54.346;10.210;2023-03-24T08:57:42;8.20;;;2.10;;
68792;SDS011;55778;54.346;10.210;2023-03-24T09:00:08;5.15;;;1.80;;
68792;SDS011;55778;54.346;10.210;2023-03-24T09:02:39;4.60;;;1.70;;
68792;SDS011;55778;54.346;10.210;2023-03-24T09:05:06;12.30;;;3.22;;
68792;SDS011;55778;54.346;10.210;2023-03-24T09:07:32;7.57;;;1.67;;
68792;SDS011;55778;54.346;10.210;2023-03-24T09:09:57;7.45;;;2.13;;
68792;SDS011;55778;54.346;10.210;2023-03-24T09:12:22;7.18;;;2.30;;
68792;SDS011;55778;54.346;10.210;2023-03-24T09:14:48;7.25;;;2.55;;
68792;SDS011;55778;54.346;10.210;2023-03-24T09:17:15;8.77;;;2.33;;
68792;SDS011;55778;54.346;10.210;2023-03-24T09:19:41;13.43;;;2.38;;
68792;SDS011;55778;54.346;10.210;2023-03-24T09:22:06;7.55;;;2.10;;
68792;SDS011;55778;54.346;10.210;2023-03-24T09:24:32;11.45;;;2.40;;
68792;SDS011;55778;54.346;10.210;2023-03-24T09:26:57;12.05;;;2.08;;
68792;SDS011;55778;54.346;10.210;2023-03-24T09:29:23;7.85;;;1.88;;
68792;SDS011;55778;54.346;10.210;2023-03-24T09:31:48;9.02;;;2.10;;
68792;SDS011;55778;54.346;10.210;2023-03-24T09:34:14;8.77;;;2.47;;
68792;SDS011;55778;54.346;10.210;2023-03-24T09:36:40;7.03;;;1.90;;
68792;SDS011;55778;54.346;10.210;2023-03-24T09:39:05;8.65;;;1.58;;
68792;SDS011;55778;54.346;10.210;2023-03-24T09:41:31;7.03;;;2.17;;
68792;SDS011;55778;54.346;10.210;2023-03-24T09:44:01;6.75;;;1.30;;
68792;SDS011;55778;54.346;10.210;2023-03-24T09:46:38;4.85;;;1.67;;
68792;SDS011;55778;54.346;10.210;2023-03-24T09:49:13;3.45;;;1.10;;
68792;SDS011;55778;54.346;10.210;2023-03-24T09:51:47;7.32;;;1.48;;
68792;SDS011;55778;54.346;10.210;2023-03-24T09:54:26;11.02;;;2.05;;
68792;SDS011;55778;54.346;10.210;2023-03-24T09:57:00;6.30;;;1.52;;
68792;SDS011;55778;54.346;10.210;2023-03-24T09:59:34;5.55;;;1.50;;
68792;SDS011;55778;54.346;10.210;2023-03-24T10:02:05;4.05;;;2.00;;
68792;SDS011;55778;54.346;10.210;2023-03-24T10:04:36;6.28;;;1.30;;
68792;SDS011;55778;54.346;10.210;2023-03-24T10:09:56;7.38;;;2.22;;
68792;SDS011;55778;54.346;10.210;2023-03-24T10:34:45;8.57;;;1.60;;
68792;SDS011;55778;54.346;10.210;2023-03-24T10:37:24;9.00;;;2.00;;
68792;SDS011;55778;54.346;10.210;2023-03-24T10:39:53;7.05;;;1.35;;
68792;SDS011;55778;54.346;10.210;2023-03-24T10:42:20;9.68;;;2.00;;
68792;SDS011;55778;54.346;10.210;2023-03-24T10:44:50;11.20;;;1.73;;
68792;SDS011;55778;54.346;10.210;2023-03-24T10:47:27;7.45;;;1.63;;
68792;SDS011;55778;54.346;10.210;2023-03-24T10:50:04;9.48;;;1.65;;
68792;SDS011;55778;54.346;10.210;2023-03-24T10:52:38;10.40;;;1.92;;
68792;SDS011;55778;54.346;10.210;2023-03-24T10:55:05;6.07;;;1.33;;
68792;SDS011;55778;54.346;10.210;2023-03-24T10:57:31;11.50;;;1.80;;
68792;SDS011;55778;54.346;10.210;2023-03-24T11:00:09;8.98;;;1.70;;
68792;SDS011;55778;54.346;10.210;2023-03-24T11:02:59;10.40;;;1.70;;
68792;SDS011;55778;54.346;10.210;2023-03-24T11:05:36;12.32;;;1.88;;
68792;SDS011;55778;54.346;10.210;2023-03-24T11:13:55;8.43;;;1.47;;
68792;SDS011;55778;54.346;10.210;2023-03-24T11:16:30;4.35;;;1.20;;
68792;SDS011;55778;54.346;10.210;2023-03-24T11:19:00;6.18;;;1.35;;
68792;SDS011;55778;54.346;10.210;2023-03-24T11:21:31;8.07;;;1.75;;
68792;SDS011;55778;54.346;10.210;2023-03-24T11:24:00;6.18;;;1.20;;
68792;SDS011;55778;54.346;10.210;2023-03-24T11:26:29;10.82;;;2.35;;
68792;SDS011;55778;54.346;10.210;2023-03-24T11:28:59;9.23;;;1.40;;
68792;SDS011;55778;54.346;10.210;2023-03-24T11:31:29;7.35;;;1.38;;
68792;SDS011;55778;54.346;10.210;2023-03-24T11:34:01;8.15;;;1.17;;
68792;SDS011;55778;54.346;10.210;2023-03-24T11:41:39;6.78;;;1.48;;
68792;SDS011;55778;54.346;10.210;2023-03-24T11:46:49;9.27;;;1.90;;
68792;SDS011;55778;54.346;10.210;2023-03-24T11:49:20;9.68;;;1.63;;
68792;SDS011;55778;54.346;10.210;2023-03-24T11:51:51;6.32;;;1.70;;
68792;SDS011;55778;54.346;10.210;2023-03-24T11:54:19;7.85;;;1.42;;
68792;SDS011;55778;54.346;10.210;2023-03-24T12:04:35;8.65;;;1.92;;
68792;SDS011;55778;54.346;10.210;2023-03-24T12:10:25;6.82;;;1.73;;
68792;SDS011;55778;54.346;10.210;2023-03-24T12:13:15;3.78;;;1.27;;
68792;SDS011;55778;54.346;10.210;2023-03-24T12:21:10;7.78;;;1.42;;
68792;SDS011;55778;54.346;10.210;2023-03-24T12:23:56;8.50;;;1.20;;
68792;SDS011;55778;54.346;10.210;2023-03-24T12:31:52;5.45;;;1.20;;
68792;SDS011;55778;54.346;10.210;2023-03-24T12:37:13;10.23;;;2.00;;
68792;SDS011;55778;54.346;10.210;2023-03-24T12:42:45;7.18;;;1.50;;
68792;SDS011;55778;54.346;10.210;2023-03-24T12:45:14;9.00;;;1.38;;
68792;SDS011;55778;54.346;10.210;2023-03-24T12:53:41;8.35;;;1.60;;
68792;SDS011;55778;54.346;10.210;2023-03-24T12:56:14;9.68;;;1.83;;
68792;SDS011;55778;54.346;10.210;2023-03-24T12:59:03;8.00;;;1.42;;
68792;SDS011;55778;54.346;10.210;2023-03-24T13:01:42;11.10;;;2.35;;
68792;SDS011;55778;54.346;10.210;2023-03-24T13:09:45;6.35;;;1.40;;
68792;SDS011;55778;54.346;10.210;2023-03-24T13:17:52;8.85;;;1.60;;
68792;SDS011;55778;54.346;10.210;2023-03-24T13:20:31;11.65;;;1.73;;
68792;SDS011;55778;54.346;10.210;2023-03-24T13:37:10;6.70;;;1.35;;
68792;SDS011;55778;54.346;10.210;2023-03-24T13:42:19;5.10;;;1.08;;
68792;SDS011;55778;54.346;10.210;2023-03-24T13:44:55;8.48;;;1.20;;
68792;SDS011;55778;54.346;10.210;2023-03-24T13:47:27;9.15;;;2.47;;
68792;SDS011;55778;54.346;10.210;2023-03-24T13:50:13;8.80;;;1.70;;
68792;SDS011;55778;54.346;10.210;2023-03-24T13:52:42;5.15;;;1.13;;
68792;SDS011;55778;54.346;10.210;2023-03-24T13:55:28;9.48;;;2.15;;
68792;SDS011;55778;54.346;10.210;2023-03-24T13:58:03;9.82;;;1.05;;
68792;SDS011;55778;54.346;10.210;2023-03-24T14:00:47;9.00;;;1.50;;
68792;SDS011;55778;54.346;10.210;2023-03-24T14:07:07;6.55;;;1.20;;
68792;SDS011;55778;54.346;10.210;2023-03-24T14:10:00;7.78;;;1.55;;
68792;SDS011;55778;54.346;10.210;2023-03-24T14:15:21;7.23;;;2.00;;
68792;SDS011;55778;54.346;10.210;2023-03-24T14:28:44;7.47;;;2.15;;
68792;SDS011;55778;54.346;10.210;2023-03-24T14:36:11;3.47;;;1.25;;
68792;SDS011;55778;54.346;10.210;2023-03-24T14:38:47;5.18;;;1.00;;
68792;SDS011;55778;54.346;10.210;2023-03-24T14:41:14;10.68;;;1.52;;
68792;SDS011;55778;54.346;10.210;2023-03-24T14:48:54;6.38;;;1.33;;
68792;SDS011;55778;54.346;10.210;2023-03-24T14:51:38;4.65;;;1.40;;
68792;SDS011;55778;54.346;10.210;2023-03-24T14:54:15;5.18;;;1.50;;
68792;SDS011;55778;54.346;10.210;2023-03-24T14:56:50;7.57;;;1.42;;
68792;SDS011;55778;54.346;10.210;2023-03-24T14:59:38;6.90;;;1.40;;
68792;SDS011;55778;54.346;10.210;2023-03-24T15:05:10;5.97;;;1.48;;
68792;SDS011;55778;54.346;10.210;2023-03-24T15:07:44;5.25;;;1.15;;
68792;SDS011;55778;54.346;10.210;2023-03-24T15:10:21;7.35;;;1.40;;
68792;SDS011;55778;54.346;10.210;2023-03-24T15:12:47;7.75;;;1.20;;
68792;SDS011;55778;54.346;10.210;2023-03-24T15:15:14;6.82;;;1.00;;
68792;SDS011;55778;54.346;10.210;2023-03-24T15:17:46;4.78;;;0.93;;
68792;SDS011;55778;54.346;10.210;2023-03-24T15:20:22;7.43;;;1.30;;
68792;SDS011;55778;54.346;10.210;2023-03-24T15:22:52;6.78;;;1.58;;
68792;SDS011;55778;54.346;10.210;2023-03-24T15:25:25;5.82;;;1.05;;
68792;SDS011;55778;54.346;10.210;2023-03-24T15:27:52;5.15;;;1.10;;
68792;SDS011;55778;54.346;10.210;2023-03-24T15:30:19;6.18;;;1.48;;
68792;SDS011;55778;54.346;10.210;2023-03-24T15:32:45;10.40;;;1.40;;
68792;SDS011;55778;54.346;10.210;2023-03-24T15:35:22;8.70;;;1.35;;
68792;SDS011;55778;54.346;10.210;2023-03-24T15:37:50;8.35;;;1.63;;
68792;SDS011;55778;54.346;10.210;2023-03-24T15:42:52;6.97;;;1.75;;
68792;SDS011;55778;54.346;10.210;2023-03-24T15:45:27;7.63;;;1.20;;
68792;SDS011;55778;54.346;10.210;2023-03-24T15:47:55;8.02;;;2.20;;
68792;SDS011;55778;54.346;10.210;2023-03-24T15:50:29;7.53;;;1.63;;
68792;SDS011;55778;54.346;10.210;2023-03-24T15:53:01;8.45;;;2.20;;
68792;SDS011;55778;54.346;10.210;2023-03-24T15:55:40;4.32;;;1.15;;
68792;SDS011;55778;54.346;10.210;2023-03-24T15:58:28;7.63;;;2.05;;
68792;SDS011;55778;54.346;10.210;2023-03-24T16:00:57;9.02;;;1.25;;
68792;SDS011;55778;54.346;10.210;2023-03-24T16:03:24;10.45;;;1.65;;
68792;SDS011;55778;54.346;10.210;2023-03-24T16:05:51;8.30;;;1.90;;
68792;SDS011;55778;54.346;10.210;2023-03-24T16:11:04;9.73;;;1.90;;
68792;SDS011;55778;54.346;10.210;2023-03-24T16:13:35;10.23;;;1.83;;
68792;SDS011;55778;54.346;10.210;2023-03-24T16:18:42;6.50;;;1.55;;
68792;SDS011;55778;54.346;10.210;2023-03-24T16:21:13;7.38;;;1.60;;
68792;SDS011;55778;54.346;10.210;2023-03-24T16:23:41;8.02;;;1.60;;
68792;SDS011;55778;54.346;10.210;2023-03-24T16:26:14;9.85;;;1.42;;
68792;SDS011;55778;54.346;10.210;2023-03-24T16:28:48;9.45;;;1.70;;
68792;SDS011;55778;54.346;10.210;2023-03-24T16:33:52;7.95;;;1.92;;
68792;SDS011;55778;54.346;10.210;2023-03-24T16:36:19;10.60;;;1.85;;
68792;SDS011;55778;54.346;10.210;2023-03-24T16:38:46;7.90;;;1.80;;
68792;SDS011;55778;54.346;10.210;2023-03-24T16:41:15;7.80;;;1.77;;
68792;SDS011;55778;54.346;10.210;2023-03-24T16:43:41;3.58;;;1.23;;
68792;SDS011;55778;54.346;10.210;2023-03-24T16:46:17;5.80;;;1.52;;
68792;SDS011;55778;54.346;10.210;2023-03-24T16:48:53;9.77;;;1.90;;
68792;SDS011;55778;54.346;10.210;2023-03-24T16:51:19;10.18;;;1.70;;
68792;SDS011;55778;54.346;10.210;2023-03-24T16:53:45;10.57;;;1.63;;
68792;SDS011;55778;54.346;10.210;2023-03-24T16:56:11;9.73;;;1.60;;
68792;SDS011;55778;54.346;10.210;2023-03-24T16:58:39;11.02;;;2.20;;
68792;SDS011;55778;54.346;10.210;2023-03-24T17:01:16;10.57;;;3.53;;
68792;SDS011;55778;54.346;10.210;2023-03-24T17:03:54;15.68;;;6.88;;
68792;SDS011;55778;54.346;10.210;2023-03-24T17:06:24;13.30;;;5.65;;
68792;SDS011;55778;54.346;10.210;2023-03-24T17:08:51;13.05;;;5.25;;
68792;SDS011;55778;54.346;10.210;2023-03-24T17:11:19;22.40;;;8.43;;
68792;SDS011;55778;54.346;10.210;2023-03-24T17:13:50;18.40;;;8.30;;
68792;SDS011;55778;54.346;10.210;2023-03-24T17:16:15;20.05;;;6.93;;
68792;SDS011;55778;54.346;10.210;2023-03-24T17:18:41;23.17;;;9.07;;
68792;SDS011;55778;54.346;10.210;2023-03-24T17:21:10;12.65;;;3.65;;
68792;SDS011;55778;54.346;10.210;2023-03-24T17:23:40;14.07;;;2.92;;
68792;SDS011;55778;54.346;10.210;2023-03-24T17:26:06;11.10;;;3.35;;
68792;SDS011;55778;54.346;10.210;2023-03-24T17:28:32;13.88;;;3.03;;
68792;SDS011;55778;54.346;10.210;2023-03-24T17:30:57;12.77;;;2.60;;
68792;SDS011;55778;54.346;10.210;2023-03-24T17:33:23;10.80;;;5.05;;
68792;SDS011;55778;54.346;10.210;2023-03-24T17:35:48;16.00;;;3.90;;
68792;SDS011;55778;54.346;10.210;2023-03-24T17:38:16;13.32;;;4.20;;
68792;SDS011;55778;54.346;10.210;2023-03-24T17:40:42;10.50;;;4.57;;
68792;SDS011;55778;54.346;10.210;2023-03-24T17:43:08;14.02;;;4.50;;
68792;SDS011;55778;54.346;10.210;2023-03-24T17:45:34;11.98;;;4.70;;
68792;SDS011;55778;54.346;10.210;2023-03-24T17:48:00;13.88;;;3.15;;
68792;SDS011;55778;54.346;10.210;2023-03-24T17:50:25;10.15;;;2.60;;
68792;SDS011;55778;54.346;10.210;2023-03-24T17:52:51;10.90;;;2.90;;
68792;SDS011;55778;54.346;10.210;2023-03-24T17:55:17;11.98;;;2.38;;
68792;SDS011;55778;54.346;10.210;2023-03-24T17:57:43;10.32;;;3.75;;
68792;SDS011;55778;54.346;10.210;2023-03-24T18:00:09;12.75;;;3.53;;
68792;SDS011;55778;54.346;10.210;2023-03-24T18:02:40;11.70;;;4.38;;
68792;SDS011;55778;54.346;10.210;2023-03-24T18:05:07;13.63;;;2.95;;
68792;SDS011;55778;54.346;10.210;2023-03-24T18:07:33;17.52;;;5.28;;
68792;SDS011;55778;54.346;10.210;2023-03-24T18:09:59;13.02;;;3.85;;
68792;SDS011;55778;54.346;10.210;2023-03-24T18:12:26;15.32;;;2.70;;